createdAt,value
2022-11-17T00:00:43.614Z,8.05
2022-11-17T00:03:16.460Z,8.05
2022-11-17T00:05:45.011Z,7.99
2022-11-17T00:08:12.674Z,7.98
2022-11-17T00:10:40.344Z,7.96
2022-11-17T00:13:26.732Z,7.91
2022-11-17T00:15:54.302Z,7.89
2022-11-17T00:18:40.784Z,7.88
2022-11-17T00:21:22.501Z,7.88
2022-11-17T00:23:51.207Z,7.88
2022-11-17T00:26:23.970Z,7.88
2022-11-17T00:29:00.015Z,7.88
2022-11-17T00:31:48.402Z,7.91
2022-11-17T00:34:21.628Z,7.95
2022-11-17T00:36:53.084Z,8.00
2022-11-17T00:39:22.851Z,8.05
2022-11-17T00:41:50.778Z,8.09
2022-11-17T00:44:18.700Z,8.10
2022-11-17T00:46:46.573Z,8.13
2022-11-17T00:49:15.645Z,8.16
2022-11-17T00:51:43.875Z,8.21
2022-11-17T00:54:13.709Z,8.22
2022-11-17T00:56:41.800Z,8.24
2022-11-17T00:59:09.504Z,8.23
2022-11-17T01:01:37.884Z,8.25
2022-11-17T01:04:06.249Z,8.28
2022-11-17T01:06:41.452Z,8.29
2022-11-17T01:09:13.705Z,8.30
2022-11-17T01:11:42.492Z,8.31
2022-11-17T01:14:14.528Z,8.32
2022-11-17T01:16:42.796Z,8.36
2022-11-17T01:19:13.066Z,8.35
2022-11-17T01:21:40.847Z,8.37
2022-11-17T01:24:09.248Z,8.37
2022-11-17T01:26:38.328Z,8.41
2022-11-17T01:29:06.819Z,8.43
2022-11-17T01:31:37.351Z,8.47
2022-11-17T01:34:05.806Z,8.50
2022-11-17T01:36:55.955Z,8.51
2022-11-17T01:39:28.564Z,8.52
2022-11-17T01:41:57.195Z,8.57
2022-11-17T01:44:42.775Z,8.58
2022-11-17T01:47:30.433Z,8.57
2022-11-17T01:50:11.161Z,8.56
2022-11-17T01:52:41.393Z,8.56
2022-11-17T01:55:12.171Z,8.56
2022-11-17T01:58:00.997Z,8.53
2022-11-17T02:00:29.905Z,8.49
2022-11-17T02:02:57.997Z,8.49
2022-11-17T02:05:57.781Z,8.50
2022-11-17T02:08:29.449Z,8.50
2022-11-17T02:10:57.783Z,8.52
2022-11-17T02:13:25.809Z,8.49
2022-11-17T02:15:53.490Z,8.47
2022-11-17T02:18:22.044Z,8.49
2022-11-17T02:21:05.150Z,8.50
2022-11-17T02:24:03.909Z,8.52
2022-11-17T02:26:59.318Z,8.54
2022-11-17T02:29:29.659Z,8.57
2022-11-17T02:31:57.229Z,8.57
2022-11-17T02:34:39.965Z,8.55
2022-11-17T02:37:34.500Z,8.56
2022-11-17T02:40:14.891Z,8.55
2022-11-17T02:43:08.363Z,8.53
2022-11-17T02:45:46.023Z,8.52
2022-11-17T02:48:20.316Z,8.51
2022-11-17T02:50:49.820Z,8.51
2022-11-17T02:53:18.945Z,8.49
2022-11-17T02:55:54.656Z,8.51
2022-11-17T02:58:22.718Z,8.54
2022-11-17T03:01:15.794Z,8.54
2022-11-17T03:03:43.379Z,8.56
2022-11-17T03:06:39.191Z,8.58
2022-11-17T03:09:21.750Z,8.54
2022-11-17T03:11:54.748Z,8.51
2022-11-17T03:14:31.037Z,8.52
2022-11-17T03:17:08.321Z,8.53
2022-11-17T03:19:53.708Z,8.53
2022-11-17T03:22:53.797Z,8.54
2022-11-17T03:25:25.700Z,8.54
2022-11-17T03:27:57.452Z,8.51
2022-11-17T03:30:26.732Z,8.44
2022-11-17T03:33:06.308Z,8.41
2022-11-17T03:35:39.769Z,8.40
2022-11-17T03:38:13.842Z,8.35
2022-11-17T03:40:47.561Z,8.31
2022-11-17T03:43:19.782Z,8.23
2022-11-17T03:45:53.558Z,8.15
2022-11-17T03:48:32.439Z,8.11
2022-11-17T03:51:10.324Z,8.08
2022-11-17T03:53:38.587Z,8.06
2022-11-17T03:56:12.333Z,8.03
2022-11-17T03:58:50.918Z,8.01
2022-11-17T04:01:21.933Z,8.03
2022-11-17T04:03:50.015Z,8.00
2022-11-17T04:06:17.663Z,8.03
2022-11-17T04:08:45.535Z,8.06
2022-11-17T04:11:31.987Z,8.10
2022-11-17T04:14:18.148Z,8.16
2022-11-17T04:16:45.791Z,8.20
2022-11-17T04:19:13.503Z,8.23
2022-11-17T04:21:41.120Z,8.22
2022-11-17T04:24:09.190Z,8.24
2022-11-17T04:26:55.801Z,8.24
2022-11-17T04:29:23.410Z,8.24
2022-11-17T04:31:51.015Z,8.24
2022-11-17T04:34:18.610Z,8.21
2022-11-17T04:36:46.499Z,8.22
2022-11-17T04:39:15.775Z,8.23
2022-11-17T04:41:58.234Z,8.23
2022-11-17T04:44:28.236Z,8.29
2022-11-17T04:46:56.690Z,8.27
2022-11-17T04:49:25.898Z,8.27
2022-11-17T04:51:55.195Z,8.31
2022-11-17T04:54:27.756Z,8.32
2022-11-17T04:56:56.453Z,8.29
2022-11-17T04:59:24.862Z,8.27
2022-11-17T05:01:52.638Z,8.27
2022-11-17T05:04:41.876Z,8.29
2022-11-17T05:07:10.323Z,8.28
2022-11-17T05:09:38.142Z,8.27
2022-11-17T05:12:24.440Z,8.25
2022-11-17T05:14:53.434Z,8.24
2022-11-17T05:17:21.004Z,8.24
2022-11-17T05:19:49.701Z,8.22
2022-11-17T05:22:39.315Z,8.24
2022-11-17T05:25:07.381Z,8.24
2022-11-17T05:27:35.726Z,8.28
2022-11-17T05:30:06.729Z,8.30
2022-11-17T05:32:34.311Z,8.30
2022-11-17T05:35:01.983Z,8.31
2022-11-17T05:37:29.667Z,8.32
2022-11-17T05:39:57.436Z,8.33
2022-11-17T05:42:25.136Z,8.30
2022-11-17T05:44:52.787Z,8.31
2022-11-17T05:47:20.418Z,8.35
2022-11-17T05:49:48.005Z,8.33
2022-11-17T05:52:15.620Z,8.34
2022-11-17T05:54:43.253Z,8.35
2022-11-17T05:57:15.270Z,8.38
2022-11-17T05:59:58.222Z,8.40
2022-11-17T06:02:41.248Z,8.41
2022-11-17T06:05:14.424Z,8.42
2022-11-17T06:07:44.807Z,8.43
2022-11-17T06:10:12.476Z,8.44
2022-11-17T06:12:40.127Z,8.48
2022-11-17T06:15:08.162Z,8.49
2022-11-17T06:17:47.231Z,8.49
2022-11-17T06:20:21.037Z,8.47
2022-11-17T06:22:50.665Z,8.49
2022-11-17T06:25:20.632Z,8.51
2022-11-17T06:27:49.770Z,8.54
2022-11-17T06:30:17.977Z,8.55
2022-11-17T06:32:46.711Z,8.56
2022-11-17T06:35:15.581Z,8.61
2022-11-17T06:37:43.908Z,8.60
2022-11-17T06:40:12.758Z,8.61
2022-11-17T06:42:59.840Z,8.65
2022-11-17T06:45:27.574Z,8.69
2022-11-17T06:47:55.603Z,8.71
2022-11-17T06:50:23.367Z,8.87
2022-11-17T06:52:51.195Z,9.01
2022-11-17T06:55:19.703Z,9.06
2022-11-17T06:57:53.040Z,9.08
2022-11-17T07:00:21.678Z,9.11
2022-11-17T07:02:49.355Z,9.16
2022-11-17T07:05:17.108Z,9.16
2022-11-17T07:07:44.855Z,9.18
2022-11-17T07:10:13.001Z,9.19
2022-11-17T07:12:40.671Z,9.18
2022-11-17T07:15:08.797Z,9.18
2022-11-17T07:17:36.596Z,9.15
2022-11-17T07:20:05.279Z,9.14
2022-11-17T07:22:32.999Z,9.13
2022-11-17T07:25:00.671Z,9.14
2022-11-17T07:27:28.413Z,9.14
2022-11-17T07:29:56.076Z,9.13
2022-11-17T07:32:24.449Z,9.13
2022-11-17T07:34:52.590Z,9.11
2022-11-17T07:37:20.515Z,9.10
2022-11-17T07:39:48.232Z,9.10
2022-11-17T07:42:15.950Z,9.07
2022-11-17T07:44:43.656Z,9.04
2022-11-17T07:47:11.366Z,9.04
2022-11-17T07:49:39.103Z,9.03
2022-11-17T07:52:06.961Z,9.01
2022-11-17T07:54:34.875Z,9.03
2022-11-17T07:57:02.530Z,9.03
2022-11-17T07:59:30.224Z,9.03
2022-11-17T08:01:58.044Z,9.06
2022-11-17T08:04:25.786Z,9.10
2022-11-17T08:06:53.552Z,9.16
2022-11-17T08:09:21.345Z,9.19
2022-11-17T08:11:49.493Z,9.26
2022-11-17T08:14:17.275Z,9.32
2022-11-17T08:16:45.111Z,9.40
2022-11-17T08:19:13.419Z,9.51
2022-11-17T08:21:42.432Z,9.61
2022-11-17T08:24:10.331Z,9.74
2022-11-17T08:26:38.124Z,9.85
2022-11-17T08:29:05.967Z,9.98
2022-11-17T08:31:34.330Z,10.11
2022-11-17T08:34:02.123Z,10.25
2022-11-17T08:36:29.882Z,10.35
2022-11-17T08:38:57.675Z,10.44
2022-11-17T08:41:26.916Z,10.51
2022-11-17T08:43:54.743Z,10.55
2022-11-17T08:46:22.473Z,10.59
2022-11-17T08:48:55.483Z,10.65
2022-11-17T08:51:24.747Z,10.73
2022-11-17T08:53:52.580Z,10.81
2022-11-17T08:56:20.482Z,10.87
2022-11-17T08:58:48.662Z,10.97
2022-11-17T09:01:17.676Z,11.02
2022-11-17T09:03:47.606Z,11.09
2022-11-17T09:06:16.994Z,11.13
2022-11-17T09:08:46.597Z,11.19
2022-11-17T09:11:15.628Z,11.24
2022-11-17T09:13:43.438Z,11.32
2022-11-17T09:16:12.593Z,11.40
2022-11-17T09:18:41.771Z,11.49
2022-11-17T09:21:16.730Z,11.57
2022-11-17T09:23:44.672Z,11.66
2022-11-17T09:26:14.793Z,11.74
2022-11-17T09:28:43.443Z,11.79
2022-11-17T09:31:29.260Z,11.85
2022-11-17T09:34:00.781Z,11.93
2022-11-17T09:36:31.679Z,11.95
2022-11-17T09:39:00.789Z,11.99
2022-11-17T09:41:49.277Z,12.05
2022-11-17T09:44:40.912Z,12.05
2022-11-17T09:47:08.558Z,12.02
2022-11-17T09:49:41.994Z,12.04
2022-11-17T09:52:29.867Z,12.08
2022-11-17T09:55:04.842Z,12.11
2022-11-17T09:58:08.379Z,12.11
2022-11-17T10:00:39.811Z,12.13
2022-11-17T10:03:22.752Z,12.14
2022-11-17T10:05:51.554Z,12.16
2022-11-17T10:08:41.539Z,12.24
2022-11-17T10:11:34.022Z,12.32
2022-11-17T10:14:16.764Z,12.37
2022-11-17T10:16:56.524Z,12.47
2022-11-17T10:19:25.614Z,12.60
2022-11-17T10:21:58.870Z,12.68
2022-11-17T10:24:43.510Z,12.75
2022-11-17T10:27:20.360Z,12.82
2022-11-17T10:30:01.150Z,12.89
2022-11-17T10:32:33.311Z,12.87
2022-11-17T10:35:18.074Z,12.89
2022-11-17T10:38:09.927Z,12.86
2022-11-17T10:40:40.905Z,12.84
2022-11-17T10:43:14.553Z,12.89
2022-11-17T10:45:46.805Z,12.88
2022-11-17T10:48:28.908Z,12.94
2022-11-17T10:51:20.562Z,13.06
2022-11-17T10:54:05.315Z,13.14
2022-11-17T10:56:42.748Z,13.19
2022-11-17T10:59:10.410Z,13.17
2022-11-17T11:01:41.441Z,13.14
2022-11-17T11:04:29.955Z,13.08
2022-11-17T11:07:12.639Z,13.00
2022-11-17T11:10:05.832Z,12.96
2022-11-17T11:13:00.347Z,12.91
2022-11-17T11:15:33.754Z,12.91
2022-11-17T11:18:01.397Z,12.91
2022-11-17T11:20:43.654Z,12.90
2022-11-17T11:23:23.058Z,12.90
2022-11-17T11:25:58.655Z,12.93
2022-11-17T11:28:58.812Z,12.97
2022-11-17T11:31:29.592Z,13.02
2022-11-17T11:34:16.554Z,13.04
2022-11-17T11:36:48.512Z,13.04
2022-11-17T11:39:37.160Z,13.05
2022-11-17T11:42:38.995Z,13.07
2022-11-17T11:45:29.358Z,13.10
2022-11-17T11:48:00.338Z,13.14
2022-11-17T11:50:35.424Z,13.19
2022-11-17T11:53:44.873Z,13.28
2022-11-17T11:56:29.681Z,13.38
2022-11-17T11:59:08.317Z,13.45
2022-11-17T12:02:14.509Z,13.53
2022-11-17T12:04:52.122Z,13.62
2022-11-17T12:07:37.511Z,13.71
2022-11-17T12:10:05.212Z,13.82
2022-11-17T12:12:37.809Z,13.90
2022-11-17T12:15:20.534Z,13.98
2022-11-17T12:17:53.917Z,14.13
2022-11-17T12:20:39.973Z,14.21
2022-11-17T12:23:10.612Z,14.34
2022-11-17T12:25:53.542Z,14.41
2022-11-17T12:28:42.001Z,14.44
2022-11-17T12:31:45.523Z,14.56
2022-11-17T12:34:28.606Z,14.62
2022-11-17T12:37:20.048Z,14.65
2022-11-17T12:40:06.043Z,14.65
2022-11-17T12:42:35.405Z,14.58
2022-11-17T12:45:13.056Z,14.61
2022-11-17T12:48:05.266Z,14.58
2022-11-17T12:50:54.447Z,14.56
2022-11-17T12:53:27.617Z,14.54
2022-11-17T12:56:13.671Z,14.56
2022-11-17T12:58:47.331Z,14.64
2022-11-17T13:01:29.214Z,14.73
2022-11-17T13:04:00.544Z,14.72
2022-11-17T13:06:35.474Z,14.71
2022-11-17T13:09:12.609Z,14.75
2022-11-17T13:11:40.329Z,14.75
2022-11-17T13:14:17.470Z,14.81
2022-11-17T13:16:51.312Z,14.84
2022-11-17T13:19:41.511Z,14.87
2022-11-17T13:22:19.977Z,14.87
2022-11-17T13:24:50.196Z,14.88
2022-11-17T13:27:29.530Z,14.95
2022-11-17T13:30:22.726Z,14.96
2022-11-17T13:32:51.091Z,14.96
2022-11-17T13:35:26.912Z,14.98
2022-11-17T13:38:03.732Z,14.94
2022-11-17T13:40:32.911Z,14.87
2022-11-17T13:43:01.955Z,14.89
2022-11-17T13:45:29.761Z,14.93
2022-11-17T13:47:59.501Z,14.97
2022-11-17T13:50:33.200Z,14.93
2022-11-17T13:53:23.793Z,14.98
2022-11-17T13:55:52.532Z,15.05
2022-11-17T13:58:41.791Z,15.11
2022-11-17T14:01:14.799Z,15.14
2022-11-17T14:03:44.870Z,15.18
2022-11-17T14:06:14.538Z,15.18
2022-11-17T14:08:44.595Z,15.22
2022-11-17T14:11:12.299Z,15.20
2022-11-17T14:14:00.117Z,15.20
2022-11-17T14:16:40.441Z,15.19
2022-11-17T14:19:17.051Z,15.17
2022-11-17T14:22:04.889Z,15.13
2022-11-17T14:24:33.983Z,15.09
2022-11-17T14:27:02.529Z,15.07
2022-11-17T14:29:30.918Z,15.00
2022-11-17T14:31:58.658Z,14.91
2022-11-17T14:34:27.008Z,14.89
2022-11-17T14:36:56.565Z,14.84
2022-11-17T14:39:24.356Z,14.80
2022-11-17T14:41:52.420Z,14.74
2022-11-17T14:44:20.322Z,14.64
2022-11-17T14:46:48.211Z,14.59
2022-11-17T14:49:16.348Z,14.54
2022-11-17T14:51:44.352Z,14.45
2022-11-17T14:54:12.442Z,14.36
2022-11-17T14:56:40.351Z,14.25
2022-11-17T14:59:08.075Z,14.10
2022-11-17T15:01:39.441Z,14.04
2022-11-17T15:04:27.614Z,13.92
2022-11-17T15:06:55.417Z,13.76
2022-11-17T15:09:23.197Z,13.67
2022-11-17T15:11:51.069Z,13.57
2022-11-17T15:14:19.179Z,13.49
2022-11-17T15:16:47.109Z,13.36
2022-11-17T15:19:14.799Z,13.33
2022-11-17T15:21:42.593Z,13.24
2022-11-17T15:24:10.442Z,13.18
2022-11-17T15:26:38.231Z,13.12
2022-11-17T15:29:05.994Z,13.06
2022-11-17T15:31:33.665Z,12.98
2022-11-17T15:34:02.337Z,12.96
2022-11-17T15:36:31.050Z,12.94
2022-11-17T15:38:58.818Z,12.90
2022-11-17T15:41:32.407Z,12.87
2022-11-17T15:44:00.620Z,12.84
2022-11-17T15:46:28.570Z,12.79
2022-11-17T15:48:56.495Z,12.76
2022-11-17T15:51:27.279Z,12.72
2022-11-17T15:53:58.946Z,12.70
2022-11-17T15:56:32.525Z,12.67
2022-11-17T15:59:06.249Z,12.60
2022-11-17T16:01:34.755Z,12.57
2022-11-17T16:04:13.518Z,12.51
2022-11-17T16:06:43.643Z,12.45
2022-11-17T16:09:11.842Z,12.42
2022-11-17T16:11:40.102Z,12.38
2022-11-17T16:14:07.892Z,12.35
2022-11-17T16:16:38.259Z,12.30
2022-11-17T16:19:07.102Z,12.23
2022-11-17T16:21:35.317Z,12.17
2022-11-17T16:24:03.271Z,12.11
2022-11-17T16:26:31.753Z,12.06
2022-11-17T16:29:05.640Z,11.98
2022-11-17T16:31:36.091Z,11.92
2022-11-17T16:34:06.714Z,11.85
2022-11-17T16:36:38.502Z,11.78
2022-11-17T16:39:12.862Z,11.71
2022-11-17T16:41:42.978Z,11.63
2022-11-17T16:44:13.212Z,11.57
2022-11-17T16:46:44.203Z,11.45
2022-11-17T16:49:14.526Z,11.39
2022-11-17T16:51:51.217Z,11.30
2022-11-17T16:54:19.804Z,11.23
2022-11-17T16:56:47.616Z,11.15
2022-11-17T16:59:16.214Z,11.10
2022-11-17T17:01:44.313Z,11.03
2022-11-17T17:04:13.399Z,10.97
2022-11-17T17:06:43.145Z,10.92
2022-11-17T17:09:13.651Z,10.87
2022-11-17T17:11:42.285Z,10.82
2022-11-17T17:14:13.625Z,10.77
2022-11-17T17:16:42.600Z,10.72
2022-11-17T17:19:12.555Z,10.64
2022-11-17T17:21:41.890Z,10.60
2022-11-17T17:24:10.549Z,10.54
2022-11-17T17:26:39.271Z,10.49
2022-11-17T17:29:07.955Z,10.42
2022-11-17T17:31:43.448Z,10.39
2022-11-17T17:34:14.030Z,10.39
2022-11-17T17:36:41.788Z,10.37
2022-11-17T17:39:09.644Z,10.34
2022-11-17T17:41:41.218Z,10.33
2022-11-17T17:44:14.308Z,10.29
2022-11-17T17:46:43.915Z,10.26
2022-11-17T17:49:11.932Z,10.25
2022-11-17T17:51:44.245Z,10.23
2022-11-17T17:54:20.903Z,10.21
2022-11-17T17:56:49.158Z,10.18
2022-11-17T17:59:17.924Z,10.19
2022-11-17T18:01:47.238Z,10.20
2022-11-17T18:04:16.421Z,10.19
2022-11-17T18:06:47.164Z,10.17
2022-11-17T18:09:16.521Z,10.18
2022-11-17T18:11:46.808Z,10.21
2022-11-17T18:14:15.092Z,10.18
2022-11-17T18:16:42.818Z,10.19
2022-11-17T18:19:14.982Z,10.17
2022-11-17T18:21:43.466Z,10.12
2022-11-17T18:24:12.727Z,10.14
2022-11-17T18:26:42.156Z,10.17
2022-11-17T18:29:14.824Z,10.17
2022-11-17T18:31:43.527Z,10.18
2022-11-17T18:34:15.961Z,10.21
2022-11-17T18:36:43.670Z,10.20
2022-11-17T18:39:11.840Z,10.20
2022-11-17T18:41:39.932Z,10.28
2022-11-17T18:44:07.668Z,10.30
2022-11-17T18:46:35.490Z,10.36
2022-11-17T18:49:03.247Z,10.42
2022-11-17T18:51:32.796Z,10.46
2022-11-17T18:54:02.059Z,10.50
2022-11-17T18:56:34.730Z,10.55
2022-11-17T18:59:03.022Z,10.58
2022-11-17T19:01:31.769Z,10.61
2022-11-17T19:04:03.425Z,10.61
2022-11-17T19:06:31.944Z,10.65
2022-11-17T19:09:01.038Z,10.67
2022-11-17T19:11:31.839Z,10.64
2022-11-17T19:14:03.314Z,10.66
2022-11-17T19:16:31.468Z,10.64
2022-11-17T19:19:00.460Z,10.65
2022-11-17T19:21:30.780Z,10.63
2022-11-17T19:24:00.702Z,10.66
2022-11-17T19:26:34.033Z,10.68
2022-11-17T19:29:04.630Z,10.66
2022-11-17T19:31:32.709Z,10.66
2022-11-17T19:34:00.828Z,10.68
2022-11-17T19:36:30.944Z,10.64
2022-11-17T19:39:00.450Z,10.62
2022-11-17T19:41:35.682Z,10.56
2022-11-17T19:44:05.508Z,10.52
2022-11-17T19:46:34.297Z,10.43
2022-11-17T19:49:01.985Z,10.35
2022-11-17T19:51:32.262Z,10.19
2022-11-17T19:54:02.905Z,10.08
2022-11-17T19:56:30.745Z,9.92
2022-11-17T19:58:58.427Z,9.78
2022-11-17T20:01:31.342Z,9.59
2022-11-17T20:04:03.898Z,9.49
2022-11-17T20:06:38.067Z,9.40
2022-11-17T20:09:14.543Z,9.25
2022-11-17T20:11:43.041Z,9.16
2022-11-17T20:14:11.031Z,9.06
2022-11-17T20:16:39.882Z,8.98
2022-11-17T20:19:08.106Z,8.86
2022-11-17T20:21:35.895Z,8.79
2022-11-17T20:24:03.821Z,8.72
2022-11-17T20:26:34.158Z,8.64
2022-11-17T20:29:02.751Z,8.56
2022-11-17T20:31:33.636Z,8.48
2022-11-17T20:34:02.825Z,8.37
2022-11-17T20:36:32.517Z,8.29
2022-11-17T20:39:02.213Z,8.19
2022-11-17T20:41:30.361Z,8.10
2022-11-17T20:43:59.725Z,8.07
2022-11-17T20:46:27.966Z,8.03
2022-11-17T20:48:55.726Z,8.00
2022-11-17T20:51:26.064Z,7.96
2022-11-17T20:53:54.601Z,7.93
2022-11-17T20:56:22.484Z,7.94
2022-11-17T20:58:50.313Z,7.96
2022-11-17T21:01:20.925Z,7.97
2022-11-17T21:03:49.145Z,7.98
2022-11-17T21:06:17.205Z,7.97
2022-11-17T21:08:46.157Z,8.00
2022-11-17T21:11:35.192Z,8.03
2022-11-17T21:14:03.951Z,8.06
2022-11-17T21:16:31.609Z,8.10
2022-11-17T21:18:59.946Z,8.12
2022-11-17T21:21:27.860Z,8.14
2022-11-17T21:23:56.038Z,8.16
2022-11-17T21:26:24.358Z,8.15
2022-11-17T21:28:53.330Z,8.15
2022-11-17T21:31:24.651Z,8.15
2022-11-17T21:33:57.807Z,8.19
2022-11-17T21:36:27.226Z,8.19
2022-11-17T21:38:56.110Z,8.23
2022-11-17T21:41:26.175Z,8.24
2022-11-17T21:43:55.665Z,8.25
2022-11-17T21:46:25.559Z,8.26
2022-11-17T21:48:55.335Z,8.27
2022-11-17T21:51:29.095Z,8.27
2022-11-17T21:53:59.095Z,8.22
2022-11-17T21:56:28.219Z,8.14
2022-11-17T21:59:07.141Z,8.03
2022-11-17T22:01:35.889Z,7.99
2022-11-17T22:04:04.029Z,7.92
2022-11-17T22:06:32.107Z,7.88
2022-11-17T22:09:00.730Z,7.85
2022-11-17T22:11:37.176Z,7.86
2022-11-17T22:14:15.285Z,7.87
2022-11-17T22:16:45.400Z,7.87
2022-11-17T22:19:14.662Z,7.86
2022-11-17T22:21:43.521Z,7.86
2022-11-17T22:24:12.763Z,7.87
2022-11-17T22:26:42.490Z,7.89
2022-11-17T22:29:14.326Z,7.88
2022-11-17T22:31:42.856Z,7.90
2022-11-17T22:34:10.928Z,7.92
2022-11-17T22:36:38.727Z,7.94
2022-11-17T22:39:07.105Z,7.95
2022-11-17T22:41:34.809Z,7.96
2022-11-17T22:44:02.495Z,7.96
2022-11-17T22:46:30.468Z,7.96
2022-11-17T22:48:58.285Z,7.96
2022-11-17T22:51:44.868Z,7.97
2022-11-17T22:54:12.454Z,7.98
2022-11-17T22:56:40.438Z,7.99
2022-11-17T22:59:08.286Z,7.99
2022-11-17T23:01:35.943Z,7.98
2022-11-17T23:04:03.688Z,7.98
2022-11-17T23:06:31.399Z,8.01
2022-11-17T23:08:59.677Z,8.03
2022-11-17T23:11:37.871Z,8.05
2022-11-17T23:14:12.007Z,8.08
2022-11-17T23:16:40.069Z,8.12
2022-11-17T23:19:10.529Z,8.15
2022-11-17T23:21:38.105Z,8.16
2022-11-17T23:24:06.088Z,8.19
2022-11-17T23:26:33.783Z,8.19
2022-11-17T23:29:01.511Z,8.19
2022-11-17T23:31:29.313Z,8.18
2022-11-17T23:33:57.370Z,8.15
2022-11-17T23:36:25.563Z,8.15
2022-11-17T23:38:55.276Z,8.14
2022-11-17T23:41:23.105Z,8.12
2022-11-17T23:43:52.430Z,8.11
2022-11-17T23:46:22.319Z,8.10
2022-11-17T23:48:50.206Z,8.08
2022-11-17T23:51:21.171Z,8.09
2022-11-17T23:53:49.056Z,8.12
2022-11-17T23:56:17.138Z,8.17
2022-11-17T23:58:45.275Z,8.18
